createdAt,value
2022-10-19T00:01:03.667Z,15.64
2022-10-19T00:03:33.450Z,15.76
2022-10-19T00:06:01.683Z,15.72
2022-10-19T00:08:29.489Z,15.54
2022-10-19T00:10:57.201Z,15.77
2022-10-19T00:13:24.987Z,15.71
2022-10-19T00:15:52.714Z,16.00
2022-10-19T00:18:20.500Z,15.99
2022-10-19T00:20:49.545Z,15.68
2022-10-19T00:23:17.185Z,16.21
2022-10-19T00:25:55.161Z,16.08
2022-10-19T00:28:22.939Z,15.96
2022-10-19T00:30:50.705Z,16.01
2022-10-19T00:33:22.477Z,15.94
2022-10-19T00:35:53.232Z,15.86
2022-10-19T00:38:22.154Z,15.81
2022-10-19T00:40:50.578Z,15.84
2022-10-19T00:43:20.733Z,15.78
2022-10-19T00:45:49.100Z,15.82
2022-10-19T00:48:20.701Z,15.69
2022-10-19T00:50:50.311Z,15.73
2022-10-19T00:53:19.659Z,15.87
2022-10-19T00:55:47.656Z,16.05
2022-10-19T00:58:15.626Z,16.02
2022-10-19T01:00:43.438Z,16.11
2022-10-19T01:03:13.244Z,16.05
2022-10-19T01:05:42.330Z,16.09
2022-10-19T01:08:11.086Z,15.95
2022-10-19T01:10:47.661Z,15.94
2022-10-19T01:13:32.566Z,15.81
2022-10-19T01:16:06.377Z,16.02
2022-10-19T01:18:40.752Z,15.92
2022-10-19T01:21:21.656Z,15.86
2022-10-19T01:24:27.391Z,16.00
2022-10-19T01:27:28.718Z,15.89
2022-10-19T01:30:07.281Z,16.01
2022-10-19T01:32:45.335Z,16.03
2022-10-19T01:35:22.770Z,15.80
2022-10-19T01:37:56.480Z,16.12
2022-10-19T01:40:31.907Z,15.63
2022-10-19T01:43:03.792Z,15.58
2022-10-19T01:45:40.587Z,15.75
2022-10-19T01:48:15.195Z,15.67
2022-10-19T01:50:48.904Z,15.59
2022-10-19T01:53:19.034Z,15.48
2022-10-19T01:55:51.089Z,15.54
2022-10-19T01:58:29.099Z,15.48
2022-10-19T02:01:02.577Z,15.29
2022-10-19T02:03:30.728Z,15.36
2022-10-19T02:05:59.519Z,15.70
2022-10-19T02:08:31.372Z,15.61
2022-10-19T02:11:00.293Z,15.60
2022-10-19T02:13:30.297Z,15.55
2022-10-19T02:16:02.461Z,15.04
2022-10-19T02:18:33.968Z,15.42
2022-10-19T02:21:02.922Z,15.22
2022-10-19T02:23:31.028Z,15.40
2022-10-19T02:25:59.741Z,15.59
2022-10-19T02:28:29.143Z,15.82
2022-10-19T02:30:57.399Z,15.71
2022-10-19T02:33:26.861Z,15.74
2022-10-19T02:35:54.773Z,15.08
2022-10-19T02:38:24.651Z,15.40
2022-10-19T02:41:01.023Z,15.58
2022-10-19T02:43:32.869Z,15.35
2022-10-19T02:46:06.780Z,15.52
2022-10-19T02:48:38.980Z,15.52
2022-10-19T02:51:06.992Z,15.00
2022-10-19T02:53:34.650Z,15.33
2022-10-19T02:56:02.300Z,15.36
2022-10-19T02:58:29.972Z,15.44
2022-10-19T03:00:57.853Z,15.50
2022-10-19T03:03:25.812Z,15.49
2022-10-19T03:05:56.536Z,15.53
2022-10-19T03:08:24.248Z,15.44
2022-10-19T03:10:51.962Z,15.36
2022-10-19T03:13:19.636Z,15.55
2022-10-19T03:15:47.512Z,15.33
2022-10-19T03:18:15.199Z,15.50
2022-10-19T03:20:42.921Z,15.36
2022-10-19T03:23:11.976Z,15.52
2022-10-19T03:25:39.714Z,15.34
2022-10-19T03:28:07.466Z,15.47
2022-10-19T03:30:35.125Z,15.56
2022-10-19T03:33:02.812Z,15.67
2022-10-19T03:35:30.468Z,15.73
2022-10-19T03:37:58.198Z,15.67
2022-10-19T03:40:27.439Z,15.70
2022-10-19T03:42:55.223Z,15.48
2022-10-19T03:45:22.898Z,15.53
2022-10-19T03:47:50.756Z,15.63
2022-10-19T03:50:19.051Z,15.56
2022-10-19T03:52:46.692Z,15.73
2022-10-19T03:55:14.366Z,15.61
2022-10-19T03:57:44.079Z,15.57
2022-10-19T04:00:13.341Z,15.61
2022-10-19T04:02:41.011Z,15.53
2022-10-19T04:05:09.417Z,15.43
2022-10-19T04:07:37.169Z,15.43
2022-10-19T04:10:05.361Z,15.50
2022-10-19T04:12:33.043Z,15.73
2022-10-19T04:15:02.097Z,15.73
2022-10-19T04:17:29.777Z,15.57
2022-10-19T04:19:57.444Z,15.65
2022-10-19T04:22:25.090Z,15.52
2022-10-19T04:24:52.712Z,15.34
2022-10-19T04:27:20.413Z,15.34
2022-10-19T04:29:48.073Z,15.49
2022-10-19T04:32:17.176Z,15.70
2022-10-19T04:34:44.909Z,15.75
2022-10-19T04:37:12.516Z,15.69
2022-10-19T04:39:43.068Z,15.69
2022-10-19T04:42:10.764Z,15.58
2022-10-19T04:44:38.897Z,15.58
2022-10-19T04:47:06.712Z,15.65
2022-10-19T04:49:35.747Z,15.80
2022-10-19T04:52:03.441Z,15.73
2022-10-19T04:54:31.136Z,15.75
2022-10-19T04:56:58.851Z,15.52
2022-10-19T04:59:26.563Z,15.63
2022-10-19T05:01:54.274Z,15.71
2022-10-19T05:04:21.996Z,15.81
2022-10-19T05:06:51.015Z,15.55
2022-10-19T05:09:18.710Z,15.77
2022-10-19T05:11:46.450Z,15.79
2022-10-19T05:14:14.611Z,15.73
2022-10-19T05:16:42.336Z,15.68
2022-10-19T05:19:14.674Z,15.73
2022-10-19T05:21:42.337Z,15.71
2022-10-19T05:24:14.262Z,15.32
2022-10-19T05:26:41.995Z,15.63
2022-10-19T05:29:12.777Z,15.51
2022-10-19T05:31:41.063Z,15.63
2022-10-19T05:34:08.924Z,15.50
2022-10-19T05:36:38.879Z,15.48
2022-10-19T05:39:09.077Z,15.35
2022-10-19T05:41:38.349Z,15.44
2022-10-19T05:44:06.903Z,15.21
2022-10-19T05:46:35.356Z,15.42
2022-10-19T05:49:03.107Z,15.66
2022-10-19T05:51:30.918Z,15.65
2022-10-19T05:53:58.723Z,15.67
2022-10-19T05:56:28.036Z,15.78
2022-10-19T05:58:58.599Z,15.78
2022-10-19T06:01:27.836Z,15.58
2022-10-19T06:03:57.523Z,15.47
2022-10-19T06:06:26.303Z,15.46
2022-10-19T06:08:55.321Z,15.66
2022-10-19T06:11:24.981Z,15.58
2022-10-19T06:13:55.409Z,15.36
2022-10-19T06:16:25.594Z,15.40
2022-10-19T06:18:54.525Z,15.63
2022-10-19T06:21:23.687Z,15.62
2022-10-19T06:23:51.922Z,15.73
2022-10-19T06:26:20.788Z,15.45
2022-10-19T06:28:49.478Z,15.80
2022-10-19T06:31:18.078Z,15.79
2022-10-19T06:33:49.446Z,15.70
2022-10-19T06:36:19.959Z,15.67
2022-10-19T06:38:48.199Z,15.45
2022-10-19T06:41:16.418Z,15.24
2022-10-19T06:43:44.670Z,15.58
2022-10-19T06:46:17.566Z,15.62
2022-10-19T06:48:45.700Z,15.63
2022-10-19T06:51:14.924Z,15.89
2022-10-19T06:53:44.187Z,15.50
2022-10-19T06:56:12.094Z,15.73
2022-10-19T06:58:40.352Z,16.12
2022-10-19T07:01:09.437Z,16.03
2022-10-19T07:03:37.879Z,16.03
2022-10-19T07:06:08.190Z,15.68
2022-10-19T07:08:38.798Z,15.96
2022-10-19T07:11:08.884Z,16.09
2022-10-19T07:13:36.907Z,16.07
2022-10-19T07:16:07.596Z,16.04
2022-10-19T07:18:36.908Z,15.99
2022-10-19T07:21:07.609Z,16.15
2022-10-19T07:23:38.718Z,16.11
2022-10-19T07:26:07.765Z,16.24
2022-10-19T07:28:35.518Z,16.36
2022-10-19T07:31:07.990Z,16.42
2022-10-19T07:33:36.117Z,16.18
2022-10-19T07:36:05.905Z,16.61
2022-10-19T07:38:34.429Z,16.46
2022-10-19T07:41:05.689Z,16.58
2022-10-19T07:43:33.876Z,16.73
2022-10-19T07:46:03.297Z,17.79
2022-10-19T07:48:31.066Z,20.82
2022-10-19T07:50:59.043Z,22.71
2022-10-19T07:53:26.772Z,24.53
2022-10-19T07:55:54.505Z,24.00
2022-10-19T07:58:23.663Z,24.22
2022-10-19T08:00:51.444Z,23.83
2022-10-19T08:04:13.730Z,25.52
2022-10-19T08:06:08.526Z,26.26
2022-10-19T08:08:37.445Z,26.88
2022-10-19T08:11:08.191Z,26.06
2022-10-19T08:13:37.441Z,26.66
2022-10-19T08:16:06.199Z,25.47
2022-10-19T08:18:33.948Z,25.03
2022-10-19T08:21:03.546Z,24.51
2022-10-19T08:23:31.309Z,25.43
2022-10-19T08:25:59.342Z,27.11
2022-10-19T08:28:27.092Z,26.72
2022-10-19T08:30:58.906Z,26.79
2022-10-19T08:33:27.852Z,27.19
2022-10-19T08:35:55.635Z,26.88
2022-10-19T08:38:23.385Z,25.22
2022-10-19T08:40:51.139Z,23.60
2022-10-19T08:43:29.670Z,23.21
2022-10-19T08:46:12.664Z,21.69
2022-10-19T08:48:43.066Z,20.26
2022-10-19T08:51:14.162Z,19.89
2022-10-19T08:53:51.426Z,20.06
2022-10-19T08:59:27.114Z,18.48
2022-10-19T09:01:59.922Z,18.50
2022-10-19T09:04:31.773Z,19.44
2022-10-19T09:07:13.969Z,19.61
2022-10-19T09:12:25.801Z,18.46
2022-10-19T09:14:59.307Z,18.30
2022-10-19T09:17:29.854Z,18.80
2022-10-19T09:19:57.938Z,19.14
2022-10-19T09:22:30.533Z,19.59
2022-10-19T09:25:04.049Z,18.70
2022-10-19T09:27:39.867Z,18.79
2022-10-19T09:30:16.611Z,18.41
2022-10-19T09:32:45.860Z,18.30
2022-10-19T09:35:25.295Z,18.90
2022-10-19T09:37:53.475Z,18.57
2022-10-19T09:40:24.796Z,18.48
2022-10-19T09:42:57.189Z,18.35
2022-10-19T09:45:35.502Z,18.94
2022-10-19T09:48:15.127Z,19.47
2022-10-19T09:50:44.808Z,18.73
2022-10-19T09:53:20.455Z,17.39
2022-10-19T09:55:52.472Z,18.60
2022-10-19T09:58:21.339Z,18.32
2022-10-19T10:00:51.539Z,18.07
2022-10-19T10:03:29.634Z,18.13
2022-10-19T10:05:59.604Z,17.17
2022-10-19T10:08:31.126Z,17.34
2022-10-19T10:11:07.794Z,17.04
2022-10-19T10:13:38.936Z,17.26
2022-10-19T10:16:09.708Z,16.84
2022-10-19T10:18:46.536Z,16.96
2022-10-19T10:21:25.307Z,17.20
2022-10-19T10:24:02.465Z,17.31
2022-10-19T10:26:30.698Z,17.87
2022-10-19T10:29:01.324Z,18.40
2022-10-19T10:31:31.163Z,18.62
2022-10-19T10:34:11.020Z,17.47
2022-10-19T10:36:52.391Z,17.93
2022-10-19T10:39:20.261Z,16.14
2022-10-19T10:41:49.758Z,16.91
2022-10-19T10:44:21.490Z,17.25
2022-10-19T10:46:54.895Z,17.13
2022-10-19T10:49:27.818Z,18.06
2022-10-19T10:51:57.751Z,18.38
2022-10-19T10:54:28.124Z,18.94
2022-10-19T10:57:06.716Z,18.68
2022-10-19T10:59:44.632Z,18.73
2022-10-19T11:02:24.078Z,18.54
2022-10-19T11:04:58.620Z,18.38
2022-10-19T11:07:28.935Z,17.98
2022-10-19T11:09:59.603Z,18.39
2022-10-19T11:12:35.561Z,18.64
2022-10-19T11:15:13.111Z,18.34
2022-10-19T11:17:50.952Z,18.91
2022-10-19T11:20:20.458Z,18.73
2022-10-19T11:22:53.951Z,17.74
2022-10-19T11:25:31.113Z,17.63
2022-10-19T11:28:15.262Z,17.89
2022-10-19T11:30:55.193Z,17.73
2022-10-19T11:33:39.047Z,18.24
2022-10-19T11:36:19.074Z,18.42
2022-10-19T11:38:59.797Z,18.15
2022-10-19T11:41:33.198Z,18.70
2022-10-19T11:44:13.776Z,17.35
2022-10-19T11:46:49.847Z,17.48
2022-10-19T11:49:30.879Z,16.51
2022-10-19T11:52:07.084Z,16.71
2022-10-19T11:54:46.056Z,16.75
2022-10-19T11:57:20.426Z,16.87
2022-10-19T12:00:13.907Z,17.40
2022-10-19T12:02:59.334Z,15.98
2022-10-19T12:05:34.350Z,16.43
2022-10-19T12:08:21.162Z,15.96
2022-10-19T12:11:00.099Z,16.97
2022-10-19T12:13:32.809Z,16.34
2022-10-19T12:16:01.451Z,15.98
2022-10-19T12:18:36.423Z,17.42
2022-10-19T12:21:09.807Z,17.24
2022-10-19T12:23:40.975Z,17.07
2022-10-19T12:26:11.781Z,17.97
2022-10-19T12:28:43.394Z,18.15
2022-10-19T12:31:12.043Z,18.60
2022-10-19T12:33:47.320Z,18.18
2022-10-19T12:36:27.508Z,16.94
2022-10-19T12:39:03.956Z,16.42
2022-10-19T12:41:45.333Z,16.32
2022-10-19T12:44:27.467Z,17.17
2022-10-19T12:47:01.072Z,17.76
2022-10-19T12:49:48.832Z,17.22
2022-10-19T12:52:33.865Z,16.89
2022-10-19T12:55:24.581Z,17.11
2022-10-19T12:58:01.377Z,17.85
2022-10-19T13:00:31.947Z,17.45
2022-10-19T13:03:03.190Z,17.21
2022-10-19T13:05:32.706Z,17.97
2022-10-19T13:08:03.477Z,17.92
2022-10-19T13:10:33.605Z,18.58
2022-10-19T13:13:03.022Z,18.53
2022-10-19T13:15:52.353Z,17.89
2022-10-19T13:19:08.318Z,17.21
2022-10-19T13:21:48.148Z,17.53
2022-10-19T13:24:37.832Z,17.83
2022-10-19T13:27:39.381Z,17.76
2022-10-19T13:30:47.493Z,16.99
2022-10-19T13:33:45.194Z,16.69
2022-10-19T13:36:13.965Z,16.89
2022-10-19T13:38:44.287Z,17.54
2022-10-19T13:41:21.574Z,17.66
2022-10-19T13:43:59.090Z,17.64
2022-10-19T13:46:43.835Z,16.77
2022-10-19T13:49:48.740Z,17.59
2022-10-19T13:52:54.806Z,17.33
2022-10-19T13:55:47.244Z,16.53
2022-10-19T13:58:47.778Z,16.92
2022-10-19T14:01:28.019Z,16.80
2022-10-19T14:04:13.322Z,16.79
2022-10-19T14:06:47.071Z,17.01
2022-10-19T14:09:31.128Z,17.23
2022-10-19T14:12:07.260Z,16.64
2022-10-19T14:17:20.267Z,16.81
2022-10-19T14:19:52.358Z,17.71
2022-10-19T14:22:25.803Z,17.50
2022-10-19T14:25:00.589Z,17.65
2022-10-19T14:27:28.434Z,17.62
2022-10-19T14:29:56.259Z,18.00
2022-10-19T14:32:26.976Z,17.42
2022-10-19T14:35:02.127Z,16.65
2022-10-19T14:37:29.905Z,16.34
2022-10-19T14:40:07.378Z,16.62
2022-10-19T14:42:43.835Z,16.58
2022-10-19T14:45:15.552Z,17.03
2022-10-19T14:47:57.268Z,16.99
2022-10-19T14:50:35.150Z,17.11
2022-10-19T14:53:11.109Z,16.97
2022-10-19T14:55:42.336Z,16.33
2022-10-19T14:58:16.980Z,16.83
2022-10-19T15:00:48.634Z,16.68
2022-10-19T15:03:23.604Z,16.98
2022-10-19T15:05:57.365Z,16.43
2022-10-19T15:08:33.821Z,16.48
2022-10-19T15:11:01.957Z,16.93
2022-10-19T15:13:34.556Z,17.48
2022-10-19T15:16:02.296Z,17.30
2022-10-19T15:18:48.890Z,17.37
2022-10-19T15:21:21.074Z,16.90
2022-10-19T15:23:50.551Z,16.53
2022-10-19T15:26:21.515Z,16.17
2022-10-19T15:28:50.270Z,16.31
2022-10-19T15:31:20.405Z,17.36
2022-10-19T15:33:51.422Z,17.37
2022-10-19T15:36:22.260Z,17.91
2022-10-19T15:39:11.495Z,17.88
2022-10-19T15:41:47.944Z,18.00
2022-10-19T15:44:33.086Z,17.11
2022-10-19T15:47:24.247Z,16.30
2022-10-19T15:49:58.245Z,15.93
2022-10-19T15:52:30.418Z,15.65
2022-10-19T15:54:59.874Z,16.08
2022-10-19T15:57:31.388Z,15.93
2022-10-19T16:00:01.449Z,15.84
2022-10-19T16:02:29.354Z,16.38
2022-10-19T16:04:57.212Z,16.66
2022-10-19T16:07:29.620Z,16.51
2022-10-19T16:09:57.916Z,16.57
2022-10-19T16:12:27.146Z,16.59
2022-10-19T16:14:55.368Z,16.52
2022-10-19T16:17:23.590Z,16.07
2022-10-19T16:19:51.427Z,16.13
2022-10-19T16:22:19.247Z,16.04
2022-10-19T16:24:48.600Z,16.14
2022-10-19T16:27:17.042Z,15.96
2022-10-19T16:29:45.457Z,15.86
2022-10-19T16:32:13.129Z,15.88
2022-10-19T16:34:41.322Z,15.99
2022-10-19T16:37:09.117Z,15.87
2022-10-19T16:39:36.907Z,15.85
2022-10-19T16:42:06.217Z,15.61
2022-10-19T16:44:34.177Z,15.15
2022-10-19T16:47:02.056Z,15.38
2022-10-19T16:49:30.067Z,15.56
2022-10-19T16:51:57.912Z,14.67
2022-10-19T16:54:26.949Z,14.58
2022-10-19T16:56:55.832Z,14.18
2022-10-19T16:59:26.006Z,13.94
2022-10-19T17:01:53.967Z,13.91
2022-10-19T17:04:22.086Z,13.28
2022-10-19T17:06:50.061Z,13.58
2022-10-19T17:12:06.515Z,13.47
2022-10-19T17:14:36.481Z,12.45
2022-10-19T17:17:04.370Z,12.22
2022-10-19T17:19:32.277Z,12.03
2022-10-19T17:22:01.864Z,12.53
2022-10-19T17:24:30.617Z,12.30
2022-10-19T17:26:58.496Z,12.56
2022-10-19T17:29:26.302Z,12.27
2022-10-19T17:31:55.538Z,12.11
2022-10-19T17:34:23.351Z,11.96
2022-10-19T17:36:51.186Z,12.11
2022-10-19T17:39:25.780Z,12.17
2022-10-19T17:42:01.241Z,12.45
2022-10-19T17:44:30.498Z,12.31
2022-10-19T17:47:00.615Z,12.00
2022-10-19T17:49:29.790Z,11.97
2022-10-19T17:51:57.573Z,11.45
2022-10-19T17:54:25.521Z,11.52
2022-10-19T17:56:53.358Z,11.59
2022-10-19T17:59:30.160Z,11.72
2022-10-19T18:02:00.009Z,11.93
2022-10-19T18:04:27.832Z,11.82
2022-10-19T18:06:55.771Z,11.87
2022-10-19T18:09:23.528Z,11.14
2022-10-19T18:11:51.228Z,11.09
2022-10-19T18:14:18.987Z,10.98
2022-10-19T18:16:48.805Z,11.01
2022-10-19T18:19:18.249Z,11.38
2022-10-19T18:21:49.161Z,11.57
2022-10-19T18:24:20.022Z,11.54
2022-10-19T18:26:49.000Z,11.35
2022-10-19T18:29:18.961Z,11.61
2022-10-19T18:31:51.234Z,11.71
2022-10-19T18:34:22.208Z,11.78
2022-10-19T18:36:50.563Z,11.93
2022-10-19T18:39:19.078Z,11.80
2022-10-19T18:41:48.271Z,10.85
2022-10-19T18:44:16.017Z,10.95
2022-10-19T18:46:44.535Z,11.39
2022-10-19T18:49:12.914Z,11.49
2022-10-19T18:51:42.071Z,11.64
2022-10-19T18:54:10.122Z,11.68
2022-10-19T18:56:38.022Z,11.79
2022-10-19T18:59:06.318Z,11.43
2022-10-19T19:01:34.264Z,11.60
2022-10-19T19:04:07.673Z,11.88
2022-10-19T19:06:36.881Z,11.88
2022-10-19T19:09:09.388Z,11.96
2022-10-19T19:11:40.766Z,11.87
2022-10-19T19:14:13.559Z,11.74
2022-10-19T19:16:43.570Z,10.79
2022-10-19T19:19:13.410Z,10.85
2022-10-19T19:21:43.985Z,11.10
2022-10-19T19:24:16.194Z,11.38
2022-10-19T19:26:48.327Z,11.42
2022-10-19T19:29:16.783Z,11.32
2022-10-19T19:31:45.146Z,11.40
2022-10-19T19:34:13.009Z,11.45
2022-10-19T19:36:47.007Z,11.31
2022-10-19T19:39:18.856Z,11.11
2022-10-19T19:41:47.684Z,11.13
2022-10-19T19:44:15.713Z,11.00
2022-10-19T19:46:43.748Z,11.26
2022-10-19T19:49:11.895Z,11.15
2022-10-19T19:51:39.815Z,11.16
2022-10-19T19:54:07.574Z,11.18
2022-10-19T19:56:37.446Z,11.40
2022-10-19T19:59:05.344Z,11.45
2022-10-19T20:01:33.508Z,11.32
2022-10-19T20:06:36.800Z,10.79
2022-10-19T20:09:05.938Z,10.80
2022-10-19T20:11:36.170Z,11.06
2022-10-19T20:14:08.960Z,11.46
2022-10-19T20:16:37.061Z,11.33
2022-10-19T20:19:08.791Z,11.42
2022-10-19T20:21:36.500Z,11.10
2022-10-19T20:24:05.042Z,10.69
2022-10-19T20:26:33.045Z,10.54
2022-10-19T20:29:02.499Z,10.51
2022-10-19T20:31:33.413Z,10.55
2022-10-19T20:34:01.496Z,10.59
2022-10-19T20:36:29.199Z,10.58
2022-10-19T20:38:58.751Z,10.19
2022-10-19T20:41:28.949Z,10.49
2022-10-19T20:43:57.675Z,10.45
2022-10-19T20:46:27.320Z,10.59
2022-10-19T20:48:57.914Z,10.80
2022-10-19T20:51:30.853Z,11.05
2022-10-19T20:54:02.024Z,11.01
2022-10-19T20:56:32.002Z,11.05
2022-10-19T21:01:36.313Z,10.60
2022-10-19T21:04:07.022Z,10.88
2022-10-19T21:06:38.127Z,10.85
2022-10-19T21:09:06.403Z,10.84
2022-10-19T21:11:36.708Z,10.99
2022-10-19T21:14:06.200Z,10.47
2022-10-19T21:16:35.274Z,10.74
2022-10-19T21:19:05.666Z,10.51
2022-10-19T21:21:35.216Z,10.22
2022-10-19T21:24:05.375Z,10.48
2022-10-19T21:26:34.830Z,10.46
2022-10-19T21:29:03.612Z,10.41
2022-10-19T21:31:32.018Z,10.66
2022-10-19T21:33:59.810Z,10.64
2022-10-19T21:36:28.930Z,10.52
2022-10-19T21:38:57.304Z,10.53
2022-10-19T21:41:26.424Z,10.55
2022-10-19T21:43:54.869Z,9.79
2022-10-19T21:46:23.807Z,10.26
2022-10-19T21:48:52.150Z,10.05
2022-10-19T21:51:24.777Z,10.19
2022-10-19T21:53:54.766Z,10.23
2022-10-19T21:56:22.546Z,9.90
2022-10-19T21:58:52.294Z,10.12
2022-10-19T22:01:22.678Z,9.81
2022-10-19T22:03:50.489Z,9.61
2022-10-19T22:06:18.319Z,9.98
2022-10-19T22:08:48.995Z,9.41
2022-10-19T22:11:18.078Z,9.20
2022-10-19T22:13:45.750Z,9.58
2022-10-19T22:16:15.867Z,9.86
2022-10-19T22:18:44.145Z,9.99
2022-10-19T22:21:14.285Z,9.72
2022-10-19T22:23:42.932Z,8.88
2022-10-19T22:26:15.569Z,9.18
2022-10-19T22:28:45.275Z,8.68
2022-10-19T22:31:14.146Z,8.90
2022-10-19T22:33:41.898Z,8.80
2022-10-19T22:36:13.042Z,8.56
2022-10-19T22:38:41.868Z,8.65
2022-10-19T22:41:09.856Z,8.43
2022-10-19T22:43:37.712Z,8.53
2022-10-19T22:46:06.736Z,8.61
2022-10-19T22:48:34.782Z,8.81
2022-10-19T22:51:02.574Z,8.56
2022-10-19T22:53:30.285Z,8.59
2022-10-19T22:55:58.062Z,8.72
2022-10-19T22:58:25.808Z,8.67
2022-10-19T23:01:01.721Z,8.86
2022-10-19T23:03:30.860Z,8.88
2022-10-19T23:05:58.653Z,8.98
2022-10-19T23:08:26.836Z,8.91
2022-10-19T23:10:54.677Z,8.77
2022-10-19T23:13:22.710Z,8.87
2022-10-19T23:15:50.766Z,8.59
2022-10-19T23:18:19.344Z,8.75
2022-10-19T23:20:55.552Z,8.87
2022-10-19T23:23:23.747Z,8.43
2022-10-19T23:25:59.370Z,9.00
2022-10-19T23:28:27.117Z,9.15
2022-10-19T23:30:56.155Z,8.88
2022-10-19T23:33:23.910Z,9.10
2022-10-19T23:35:51.601Z,8.61
2022-10-19T23:38:20.669Z,8.83
2022-10-19T23:40:48.323Z,8.92
2022-10-19T23:43:15.936Z,9.37
2022-10-19T23:45:46.208Z,8.83
2022-10-19T23:48:13.888Z,9.03
2022-10-19T23:50:41.640Z,8.88
2022-10-19T23:53:09.381Z,9.05
2022-10-19T23:55:38.709Z,8.50
2022-10-19T23:58:06.497Z,8.82
